sensor_id;sensor_type;location;lat;lon;timestamp;temperature;humidity
15705;DHT22;7952;48.396;12.806;2022-12-10T00:01:24;4.90;61.80
15705;DHT22;7952;48.396;12.806;2022-12-10T00:03:50;4.80;61.80
15705;DHT22;7952;48.396;12.806;2022-12-10T00:06:28;4.80;61.90
15705;DHT22;7952;48.396;12.806;2022-12-10T00:08:55;4.80;61.90
15705;DHT22;7952;48.396;12.806;2022-12-10T00:11:22;4.80;62.00
15705;DHT22;7952;48.396;12.806;2022-12-10T00:13:49;4.80;62.00
15705;DHT22;7952;48.396;12.806;2022-12-10T00:16:16;4.80;62.10
15705;DHT22;7952;48.396;12.806;2022-12-10T00:18:43;4.80;62.10
15705;DHT22;7952;48.396;12.806;2022-12-10T00:21:12;4.80;62.10
15705;DHT22;7952;48.396;12.806;2022-12-10T00:23:38;4.80;62.10
15705;DHT22;7952;48.396;12.806;2022-12-10T00:26:11;4.80;62.10
15705;DHT22;7952;48.396;12.806;2022-12-10T00:28:38;4.90;62.20
15705;DHT22;7952;48.396;12.806;2022-12-10T00:31:15;4.90;62.10
15705;DHT22;7952;48.396;12.806;2022-12-10T00:33:42;4.90;62.10
15705;DHT22;7952;48.396;12.806;2022-12-10T00:36:13;4.90;62.10
15705;DHT22;7952;48.396;12.806;2022-12-10T00:38:39;4.90;62.10
15705;DHT22;7952;48.396;12.806;2022-12-10T00:41:05;4.90;62.00
15705;DHT22;7952;48.396;12.806;2022-12-10T00:43:31;4.90;61.90
15705;DHT22;7952;48.396;12.806;2022-12-10T00:45:57;4.90;61.90
15705;DHT22;7952;48.396;12.806;2022-12-10T00:48:23;4.90;61.90
15705;DHT22;7952;48.396;12.806;2022-12-10T00:50:59;4.90;62.00
15705;DHT22;7952;48.396;12.806;2022-12-10T00:53:27;4.90;62.00
15705;DHT22;7952;48.396;12.806;2022-12-10T00:55:53;4.90;62.00
15705;DHT22;7952;48.396;12.806;2022-12-10T00:58:19;4.90;62.10
15705;DHT22;7952;48.396;12.806;2022-12-10T01:00:45;4.90;62.10
15705;DHT22;7952;48.396;12.806;2022-12-10T01:03:11;4.90;62.00
15705;DHT22;7952;48.396;12.806;2022-12-10T01:05:37;5.00;62.80
15705;DHT22;7952;48.396;12.806;2022-12-10T01:08:02;5.00;62.10
15705;DHT22;7952;48.396;12.806;2022-12-10T01:10:28;5.00;62.10
15705;DHT22;7952;48.396;12.806;2022-12-10T01:12:54;5.00;62.10
15705;DHT22;7952;48.396;12.806;2022-12-10T01:15:19;5.00;62.10
15705;DHT22;7952;48.396;12.806;2022-12-10T01:17:45;5.00;62.10
15705;DHT22;7952;48.396;12.806;2022-12-10T01:20:10;5.10;62.20
15705;DHT22;7952;48.396;12.806;2022-12-10T01:22:37;5.10;62.10
15705;DHT22;7952;48.396;12.806;2022-12-10T01:25:03;5.10;62.00
15705;DHT22;7952;48.396;12.806;2022-12-10T01:27:29;5.10;62.00
15705;DHT22;7952;48.396;12.806;2022-12-10T01:29:55;5.10;61.90
15705;DHT22;7952;48.396;12.806;2022-12-10T01:32:21;5.10;61.80
15705;DHT22;7952;48.396;12.806;2022-12-10T01:34:46;5.10;61.80
15705;DHT22;7952;48.396;12.806;2022-12-10T01:37:12;5.10;62.50
15705;DHT22;7952;48.396;12.806;2022-12-10T01:39:38;5.10;61.90
15705;DHT22;7952;48.396;12.806;2022-12-10T01:42:04;5.10;61.80
15705;DHT22;7952;48.396;12.806;2022-12-10T01:46:58;5.10;61.90
15705;DHT22;7952;48.396;12.806;2022-12-10T01:49:34;5.10;61.90
15705;DHT22;7952;48.396;12.806;2022-12-10T01:52:00;5.10;62.00
15705;DHT22;7952;48.396;12.806;2022-12-10T01:54:41;5.10;62.00
15705;DHT22;7952;48.396;12.806;2022-12-10T01:57:27;5.10;62.00
15705;DHT22;7952;48.396;12.806;2022-12-10T02:00:04;5.10;62.70
15705;DHT22;7952;48.396;12.806;2022-12-10T02:02:42;5.10;62.00
15705;DHT22;7952;48.396;12.806;2022-12-10T02:08:03;5.10;62.00
15705;DHT22;7952;48.396;12.806;2022-12-10T02:13:28;5.00;61.90
15705;DHT22;7952;48.396;12.806;2022-12-10T02:18:37;5.00;62.00
15705;DHT22;7952;48.396;12.806;2022-12-10T02:21:13;5.00;62.10
15705;DHT22;7952;48.396;12.806;2022-12-10T02:23:46;5.00;62.00
15705;DHT22;7952;48.396;12.806;2022-12-10T02:29:07;5.00;62.00
15705;DHT22;7952;48.396;12.806;2022-12-10T02:31:38;4.90;61.90
15705;DHT22;7952;48.396;12.806;2022-12-10T02:34:07;5.00;62.00
15705;DHT22;7952;48.396;12.806;2022-12-10T02:36:38;5.00;62.00
15705;DHT22;7952;48.396;12.806;2022-12-10T02:39:09;5.00;61.90
15705;DHT22;7952;48.396;12.806;2022-12-10T02:41:39;5.00;61.90
15705;DHT22;7952;48.396;12.806;2022-12-10T02:44:10;4.90;61.80
15705;DHT22;7952;48.396;12.806;2022-12-10T02:46:37;4.90;61.80
15705;DHT22;7952;48.396;12.806;2022-12-10T02:49:05;4.90;61.90
15705;DHT22;7952;48.396;12.806;2022-12-10T02:51:31;4.90;61.90
15705;DHT22;7952;48.396;12.806;2022-12-10T02:54:06;4.90;61.90
15705;DHT22;7952;48.396;12.806;2022-12-10T02:56:56;4.90;61.80
15705;DHT22;7952;48.396;12.806;2022-12-10T02:59:33;4.90;61.80
15705;DHT22;7952;48.396;12.806;2022-12-10T03:02:19;4.90;61.80
15705;DHT22;7952;48.396;12.806;2022-12-10T03:05:04;4.90;61.90
15705;DHT22;7952;48.396;12.806;2022-12-10T03:07:56;4.90;62.00
15705;DHT22;7952;48.396;12.806;2022-12-10T03:10:24;4.90;62.00
15705;DHT22;7952;48.396;12.806;2022-12-10T03:12:58;4.90;62.00
15705;DHT22;7952;48.396;12.806;2022-12-10T03:15:29;4.90;62.60
15705;DHT22;7952;48.396;12.806;2022-12-10T03:17:57;4.90;62.00
15705;DHT22;7952;48.396;12.806;2022-12-10T03:20:24;4.90;62.00
15705;DHT22;7952;48.396;12.806;2022-12-10T03:22:50;5.00;62.10
15705;DHT22;7952;48.396;12.806;2022-12-10T03:25:19;5.00;62.10
15705;DHT22;7952;48.396;12.806;2022-12-10T03:27:48;5.00;62.10
15705;DHT22;7952;48.396;12.806;2022-12-10T03:30:15;5.00;62.10
15705;DHT22;7952;48.396;12.806;2022-12-10T03:32:42;4.90;62.00
15705;DHT22;7952;48.396;12.806;2022-12-10T03:35:09;5.00;62.10
15705;DHT22;7952;48.396;12.806;2022-12-10T03:37:35;5.00;62.10
15705;DHT22;7952;48.396;12.806;2022-12-10T03:40:03;5.00;62.10
15705;DHT22;7952;48.396;12.806;2022-12-10T03:42:29;5.00;62.10
15705;DHT22;7952;48.396;12.806;2022-12-10T03:44:55;5.00;62.10
15705;DHT22;7952;48.396;12.806;2022-12-10T03:47:21;5.00;62.10
15705;DHT22;7952;48.396;12.806;2022-12-10T03:49:47;5.00;62.10
15705;DHT22;7952;48.396;12.806;2022-12-10T03:52:12;5.00;62.10
15705;DHT22;7952;48.396;12.806;2022-12-10T03:54:38;5.00;62.10
15705;DHT22;7952;48.396;12.806;2022-12-10T03:57:04;5.00;62.10
15705;DHT22;7952;48.396;12.806;2022-12-10T03:59:29;5.00;62.10
15705;DHT22;7952;48.396;12.806;2022-12-10T04:01:55;5.00;62.10
15705;DHT22;7952;48.396;12.806;2022-12-10T04:04:20;5.00;62.10
15705;DHT22;7952;48.396;12.806;2022-12-10T04:06:46;5.00;62.10
15705;DHT22;7952;48.396;12.806;2022-12-10T04:09:14;5.00;62.10
15705;DHT22;7952;48.396;12.806;2022-12-10T04:11:40;5.00;62.10
15705;DHT22;7952;48.396;12.806;2022-12-10T04:14:05;5.00;62.10
15705;DHT22;7952;48.396;12.806;2022-12-10T04:16:49;5.10;62.20
15705;DHT22;7952;48.396;12.806;2022-12-10T04:19:17;5.10;62.10
15705;DHT22;7952;48.396;12.806;2022-12-10T04:21:44;5.10;62.10
15705;DHT22;7952;48.396;12.806;2022-12-10T04:24:30;5.10;62.10
15705;DHT22;7952;48.396;12.806;2022-12-10T04:29:43;5.10;62.10
15705;DHT22;7952;48.396;12.806;2022-12-10T04:32:09;5.10;62.10
15705;DHT22;7952;48.396;12.806;2022-12-10T04:34:34;5.10;62.10
15705;DHT22;7952;48.396;12.806;2022-12-10T04:37:01;5.10;62.10
15705;DHT22;7952;48.396;12.806;2022-12-10T04:39:27;5.10;62.10
15705;DHT22;7952;48.396;12.806;2022-12-10T04:41:53;5.20;62.20
15705;DHT22;7952;48.396;12.806;2022-12-10T04:44:19;5.10;62.00
15705;DHT22;7952;48.396;12.806;2022-12-10T04:46:45;5.20;62.20
15705;DHT22;7952;48.396;12.806;2022-12-10T04:49:12;5.20;62.10
15705;DHT22;7952;48.396;12.806;2022-12-10T04:51:37;5.20;62.10
15705;DHT22;7952;48.396;12.806;2022-12-10T04:54:03;5.20;62.00
15705;DHT22;7952;48.396;12.806;2022-12-10T04:56:29;5.20;61.90
15705;DHT22;7952;48.396;12.806;2022-12-10T04:58:56;5.20;61.90
15705;DHT22;7952;48.396;12.806;2022-12-10T05:01:22;5.20;61.80
15705;DHT22;7952;48.396;12.806;2022-12-10T05:03:48;5.10;61.70
15705;DHT22;7952;48.396;12.806;2022-12-10T05:06:16;5.10;61.70
15705;DHT22;7952;48.396;12.806;2022-12-10T05:08:43;5.10;61.80
15705;DHT22;7952;48.396;12.806;2022-12-10T05:11:14;5.10;61.80
15705;DHT22;7952;48.396;12.806;2022-12-10T05:13:41;5.00;61.80
15705;DHT22;7952;48.396;12.806;2022-12-10T05:16:08;5.00;61.80
15705;DHT22;7952;48.396;12.806;2022-12-10T05:18:35;5.00;61.90
15705;DHT22;7952;48.396;12.806;2022-12-10T05:21:03;5.00;61.90
15705;DHT22;7952;48.396;12.806;2022-12-10T05:23:29;4.90;61.80
15705;DHT22;7952;48.396;12.806;2022-12-10T05:26:13;4.90;61.90
15705;DHT22;7952;48.396;12.806;2022-12-10T05:28:45;4.90;61.90
15705;DHT22;7952;48.396;12.806;2022-12-10T05:31:16;4.90;62.00
15705;DHT22;7952;48.396;12.806;2022-12-10T05:33:42;4.80;61.90
15705;DHT22;7952;48.396;12.806;2022-12-10T05:36:10;4.90;62.10
15705;DHT22;7952;48.396;12.806;2022-12-10T05:38:36;4.80;62.00
15705;DHT22;7952;48.396;12.806;2022-12-10T05:41:03;4.80;62.10
15705;DHT22;7952;48.396;12.806;2022-12-10T05:43:29;4.80;62.40
15705;DHT22;7952;48.396;12.806;2022-12-10T05:46:02;4.90;62.20
15705;DHT22;7952;48.396;12.806;2022-12-10T05:48:27;4.90;62.20
15705;DHT22;7952;48.396;12.806;2022-12-10T05:50:53;4.90;62.20
15705;DHT22;7952;48.396;12.806;2022-12-10T05:53:19;4.90;62.20
15705;DHT22;7952;48.396;12.806;2022-12-10T05:55:44;4.90;62.20
15705;DHT22;7952;48.396;12.806;2022-12-10T05:58:10;4.90;62.20
15705;DHT22;7952;48.396;12.806;2022-12-10T06:00:38;4.90;62.20
15705;DHT22;7952;48.396;12.806;2022-12-10T06:03:05;5.00;62.30
15705;DHT22;7952;48.396;12.806;2022-12-10T06:05:36;5.00;62.30
15705;DHT22;7952;48.396;12.806;2022-12-10T06:08:02;5.00;62.20
15705;DHT22;7952;48.396;12.806;2022-12-10T06:10:27;5.00;62.20
15705;DHT22;7952;48.396;12.806;2022-12-10T06:12:53;5.00;62.20
15705;DHT22;7952;48.396;12.806;2022-12-10T06:15:19;5.00;62.10
15705;DHT22;7952;48.396;12.806;2022-12-10T06:17:44;5.00;62.10
15705;DHT22;7952;48.396;12.806;2022-12-10T06:20:10;5.00;62.10
15705;DHT22;7952;48.396;12.806;2022-12-10T06:22:36;4.90;62.10
15705;DHT22;7952;48.396;12.806;2022-12-10T06:25:02;4.90;62.00
15705;DHT22;7952;48.396;12.806;2022-12-10T06:27:30;4.90;62.00
15705;DHT22;7952;48.396;12.806;2022-12-10T06:29:56;4.90;62.10
15705;DHT22;7952;48.396;12.806;2022-12-10T06:32:22;4.90;62.10
15705;DHT22;7952;48.396;12.806;2022-12-10T06:34:47;4.90;62.20
15705;DHT22;7952;48.396;12.806;2022-12-10T06:37:13;5.00;62.20
15705;DHT22;7952;48.396;12.806;2022-12-10T06:39:39;5.00;62.10
15705;DHT22;7952;48.396;12.806;2022-12-10T06:42:04;5.00;62.10
15705;DHT22;7952;48.396;12.806;2022-12-10T06:44:31;5.00;62.00
15705;DHT22;7952;48.396;12.806;2022-12-10T06:46:56;5.00;62.00
15705;DHT22;7952;48.396;12.806;2022-12-10T06:49:22;5.00;62.00
15705;DHT22;7952;48.396;12.806;2022-12-10T06:51:48;5.10;62.20
15705;DHT22;7952;48.396;12.806;2022-12-10T06:54:14;5.00;62.10
15705;DHT22;7952;48.396;12.806;2022-12-10T06:56:39;5.00;62.00
15705;DHT22;7952;48.396;12.806;2022-12-10T06:59:05;5.00;62.10
15705;DHT22;7952;48.396;12.806;2022-12-10T07:01:37;5.10;62.20
15705;DHT22;7952;48.396;12.806;2022-12-10T07:04:03;5.00;62.70
15705;DHT22;7952;48.396;12.806;2022-12-10T07:06:30;5.00;62.10
15705;DHT22;7952;48.396;12.806;2022-12-10T07:08:56;5.00;62.10
15705;DHT22;7952;48.396;12.806;2022-12-10T07:11:23;5.00;62.20
15705;DHT22;7952;48.396;12.806;2022-12-10T07:13:49;5.00;62.20
15705;DHT22;7952;48.396;12.806;2022-12-10T07:18:45;5.00;62.20
15705;DHT22;7952;48.396;12.806;2022-12-10T07:21:28;5.00;62.20
15705;DHT22;7952;48.396;12.806;2022-12-10T07:23:56;5.00;62.20
15705;DHT22;7952;48.396;12.806;2022-12-10T07:26:28;5.00;62.20
15705;DHT22;7952;48.396;12.806;2022-12-10T07:28:54;5.00;62.20
15705;DHT22;7952;48.396;12.806;2022-12-10T07:31:21;5.00;62.20
15705;DHT22;7952;48.396;12.806;2022-12-10T07:33:47;5.00;62.20
15705;DHT22;7952;48.396;12.806;2022-12-10T07:36:13;5.00;62.30
15705;DHT22;7952;48.396;12.806;2022-12-10T07:38:39;5.00;62.30
15705;DHT22;7952;48.396;12.806;2022-12-10T07:41:07;5.10;62.40
15705;DHT22;7952;48.396;12.806;2022-12-10T07:43:38;5.10;62.30
15705;DHT22;7952;48.396;12.806;2022-12-10T07:46:06;5.10;62.30
15705;DHT22;7952;48.396;12.806;2022-12-10T07:48:34;5.20;62.40
15705;DHT22;7952;48.396;12.806;2022-12-10T07:51:00;5.20;62.30
15705;DHT22;7952;48.396;12.806;2022-12-10T07:53:26;5.20;62.30
15705;DHT22;7952;48.396;12.806;2022-12-10T07:55:51;5.20;62.90
15705;DHT22;7952;48.396;12.806;2022-12-10T07:58:17;5.30;62.30
15705;DHT22;7952;48.396;12.806;2022-12-10T08:00:43;5.30;62.30
15705;DHT22;7952;48.396;12.806;2022-12-10T08:03:08;5.30;62.20
15705;DHT22;7952;48.396;12.806;2022-12-10T08:05:34;5.30;62.20
15705;DHT22;7952;48.396;12.806;2022-12-10T08:07:59;5.40;62.30
15705;DHT22;7952;48.396;12.806;2022-12-10T08:10:25;5.40;62.20
15705;DHT22;7952;48.396;12.806;2022-12-10T08:12:50;5.40;62.20
15705;DHT22;7952;48.396;12.806;2022-12-10T08:15:16;5.40;62.20
15705;DHT22;7952;48.396;12.806;2022-12-10T08:17:41;5.40;62.20
15705;DHT22;7952;48.396;12.806;2022-12-10T08:20:08;5.40;62.80
15705;DHT22;7952;48.396;12.806;2022-12-10T08:22:33;5.50;62.30
15705;DHT22;7952;48.396;12.806;2022-12-10T08:25:01;5.50;62.30
15705;DHT22;7952;48.396;12.806;2022-12-10T08:27:26;5.50;62.30
15705;DHT22;7952;48.396;12.806;2022-12-10T08:29:52;5.50;62.30
15705;DHT22;7952;48.396;12.806;2022-12-10T08:32:18;5.50;62.20
15705;DHT22;7952;48.396;12.806;2022-12-10T08:34:44;5.60;62.30
15705;DHT22;7952;48.396;12.806;2022-12-10T08:37:10;5.60;62.30
15705;DHT22;7952;48.396;12.806;2022-12-10T08:39:35;5.60;62.30
15705;DHT22;7952;48.396;12.806;2022-12-10T08:42:01;5.70;62.30
15705;DHT22;7952;48.396;12.806;2022-12-10T08:44:26;5.70;62.30
15705;DHT22;7952;48.396;12.806;2022-12-10T08:46:52;5.70;62.20
15705;DHT22;7952;48.396;12.806;2022-12-10T08:49:17;5.80;62.30
15705;DHT22;7952;48.396;12.806;2022-12-10T08:51:43;5.80;62.30
15705;DHT22;7952;48.396;12.806;2022-12-10T08:54:09;5.80;62.30
15705;DHT22;7952;48.396;12.806;2022-12-10T08:56:34;5.80;62.20
15705;DHT22;7952;48.396;12.806;2022-12-10T08:59:00;5.90;62.30
15705;DHT22;7952;48.396;12.806;2022-12-10T09:01:26;5.90;62.30
15705;DHT22;7952;48.396;12.806;2022-12-10T09:03:51;5.90;62.30
15705;DHT22;7952;48.396;12.806;2022-12-10T09:06:19;6.00;62.40
15705;DHT22;7952;48.396;12.806;2022-12-10T09:08:45;6.00;62.30
15705;DHT22;7952;48.396;12.806;2022-12-10T09:11:14;6.00;62.30
15705;DHT22;7952;48.396;12.806;2022-12-10T09:13:40;6.00;62.20
15705;DHT22;7952;48.396;12.806;2022-12-10T09:16:06;6.10;62.30
15705;DHT22;7952;48.396;12.806;2022-12-10T09:18:32;6.10;62.20
15705;DHT22;7952;48.396;12.806;2022-12-10T09:20:57;6.10;62.10
15705;DHT22;7952;48.396;12.806;2022-12-10T09:23:23;6.10;62.10
15705;DHT22;7952;48.396;12.806;2022-12-10T09:25:48;6.00;62.00
15705;DHT22;7952;48.396;12.806;2022-12-10T09:28:14;6.00;62.10
15705;DHT22;7952;48.396;12.806;2022-12-10T09:30:39;6.00;62.10
15705;DHT22;7952;48.396;12.806;2022-12-10T09:33:05;6.00;62.10
15705;DHT22;7952;48.396;12.806;2022-12-10T09:35:31;6.00;62.20
15705;DHT22;7952;48.396;12.806;2022-12-10T09:37:56;6.00;62.20
15705;DHT22;7952;48.396;12.806;2022-12-10T09:40:39;6.00;62.20
15705;DHT22;7952;48.396;12.806;2022-12-10T09:43:19;6.10;62.20
15705;DHT22;7952;48.396;12.806;2022-12-10T09:51:30;6.00;62.20
15705;DHT22;7952;48.396;12.806;2022-12-10T09:53:57;6.10;62.30
15705;DHT22;7952;48.396;12.806;2022-12-10T09:56:35;6.00;62.20
15705;DHT22;7952;48.396;12.806;2022-12-10T09:59:34;6.00;62.30
15705;DHT22;7952;48.396;12.806;2022-12-10T10:04:38;6.00;62.30
15705;DHT22;7952;48.396;12.806;2022-12-10T10:07:05;6.10;62.40
15705;DHT22;7952;48.396;12.806;2022-12-10T10:09:33;6.10;62.30
15705;DHT22;7952;48.396;12.806;2022-12-10T10:12:02;6.10;62.30
15705;DHT22;7952;48.396;12.806;2022-12-10T10:14:28;6.10;62.30
15705;DHT22;7952;48.396;12.806;2022-12-10T10:16:55;6.10;62.30
15705;DHT22;7952;48.396;12.806;2022-12-10T10:19:33;6.10;62.30
15705;DHT22;7952;48.396;12.806;2022-12-10T10:22:00;6.10;62.20
15705;DHT22;7952;48.396;12.806;2022-12-10T10:24:34;6.10;62.20
15705;DHT22;7952;48.396;12.806;2022-12-10T10:27:18;6.10;62.20
15705;DHT22;7952;48.396;12.806;2022-12-10T10:29:47;6.10;62.30
15705;DHT22;7952;48.396;12.806;2022-12-10T10:34:44;6.10;62.50
15705;DHT22;7952;48.396;12.806;2022-12-10T10:37:25;6.20;62.50
15705;DHT22;7952;48.396;12.806;2022-12-10T10:39:52;6.20;62.50
15705;DHT22;7952;48.396;12.806;2022-12-10T10:42:39;6.30;62.50
15705;DHT22;7952;48.396;12.806;2022-12-10T10:45:32;6.30;62.40
15705;DHT22;7952;48.396;12.806;2022-12-10T10:48:14;6.30;62.40
15705;DHT22;7952;48.396;12.806;2022-12-10T10:56:15;6.30;62.40
15705;DHT22;7952;48.396;12.806;2022-12-10T11:01:17;6.40;62.50
15705;DHT22;7952;48.396;12.806;2022-12-10T11:03:49;6.40;62.50
15705;DHT22;7952;48.396;12.806;2022-12-10T11:06:16;6.40;62.50
15705;DHT22;7952;48.396;12.806;2022-12-10T11:08:44;6.40;62.40
15705;DHT22;7952;48.396;12.806;2022-12-10T11:11:14;6.40;62.40
15705;DHT22;7952;48.396;12.806;2022-12-10T11:13:42;6.50;63.10
15705;DHT22;7952;48.396;12.806;2022-12-10T11:16:24;6.50;62.50
15705;DHT22;7952;48.396;12.806;2022-12-10T11:19:01;6.50;62.40
15705;DHT22;7952;48.396;12.806;2022-12-10T11:21:32;6.50;62.30
15705;DHT22;7952;48.396;12.806;2022-12-10T11:23:59;6.50;62.30
15705;DHT22;7952;48.396;12.806;2022-12-10T11:26:41;6.50;62.30
15705;DHT22;7952;48.396;12.806;2022-12-10T11:29:32;6.50;62.30
15705;DHT22;7952;48.396;12.806;2022-12-10T11:35:12;6.50;62.30
15705;DHT22;7952;48.396;12.806;2022-12-10T11:46:18;6.60;62.40
15705;DHT22;7952;48.396;12.806;2022-12-10T11:49:28;6.60;62.50
15705;DHT22;7952;48.396;12.806;2022-12-10T11:54:45;6.60;62.30
15705;DHT22;7952;48.396;12.806;2022-12-10T12:00:43;6.60;62.90
15705;DHT22;7952;48.396;12.806;2022-12-10T12:11:33;6.50;62.20
15705;DHT22;7952;48.396;12.806;2022-12-10T12:16:40;6.40;62.30
15705;DHT22;7952;48.396;12.806;2022-12-10T12:19:25;6.40;62.40
15705;DHT22;7952;48.396;12.806;2022-12-10T12:21:55;6.50;62.40
15705;DHT22;7952;48.396;12.806;2022-12-10T12:24:28;6.40;62.30
15705;DHT22;7952;48.396;12.806;2022-12-10T12:27:01;6.40;62.30
15705;DHT22;7952;48.396;12.806;2022-12-10T12:29:33;6.40;62.40
15705;DHT22;7952;48.396;12.806;2022-12-10T12:32:09;6.50;62.50
15705;DHT22;7952;48.396;12.806;2022-12-10T12:34:47;6.50;62.40
15705;DHT22;7952;48.396;12.806;2022-12-10T12:37:17;6.50;62.50
15705;DHT22;7952;48.396;12.806;2022-12-10T12:39:45;6.50;62.40
15705;DHT22;7952;48.396;12.806;2022-12-10T12:42:26;6.50;62.30
15705;DHT22;7952;48.396;12.806;2022-12-10T12:45:03;6.50;62.40
15705;DHT22;7952;48.396;12.806;2022-12-10T12:47:53;6.50;62.30
15705;DHT22;7952;48.396;12.806;2022-12-10T12:53:12;6.40;62.20
15705;DHT22;7952;48.396;12.806;2022-12-10T12:58:31;6.40;62.30
15705;DHT22;7952;48.396;12.806;2022-12-10T13:01:27;6.40;62.30
15705;DHT22;7952;48.396;12.806;2022-12-10T13:03:56;6.30;62.20
15705;DHT22;7952;48.396;12.806;2022-12-10T13:06:28;6.30;62.20
15705;DHT22;7952;48.396;12.806;2022-12-10T13:11:43;6.20;62.30
15705;DHT22;7952;48.396;12.806;2022-12-10T13:22:12;6.10;62.30
15705;DHT22;7952;48.396;12.806;2022-12-10T13:25:40;6.10;62.40
15705;DHT22;7952;48.396;12.806;2022-12-10T13:33:50;6.10;62.50
15705;DHT22;7952;48.396;12.806;2022-12-10T13:37:14;6.10;62.50
15705;DHT22;7952;48.396;12.806;2022-12-10T13:41:42;6.00;62.40
15705;DHT22;7952;48.396;12.806;2022-12-10T13:50:04;6.00;62.50
15705;DHT22;7952;48.396;12.806;2022-12-10T14:00:57;5.90;62.40
15705;DHT22;7952;48.396;12.806;2022-12-10T14:03:59;5.90;62.40
15705;DHT22;7952;48.396;12.806;2022-12-10T14:06:33;5.90;62.40
15705;DHT22;7952;48.396;12.806;2022-12-10T14:11:35;5.90;62.40
15705;DHT22;7952;48.396;12.806;2022-12-10T14:14:05;5.90;62.40
15705;DHT22;7952;48.396;12.806;2022-12-10T14:16:33;5.90;62.40
15705;DHT22;7952;48.396;12.806;2022-12-10T14:19:04;5.90;62.40
15705;DHT22;7952;48.396;12.806;2022-12-10T14:21:35;5.90;62.50
15705;DHT22;7952;48.396;12.806;2022-12-10T14:24:02;5.90;62.40
15705;DHT22;7952;48.396;12.806;2022-12-10T14:26:32;5.90;62.40
15705;DHT22;7952;48.396;12.806;2022-12-10T14:29:20;5.90;62.40
15705;DHT22;7952;48.396;12.806;2022-12-10T14:31:49;5.90;62.40
15705;DHT22;7952;48.396;12.806;2022-12-10T14:34:18;5.80;62.30
15705;DHT22;7952;48.396;12.806;2022-12-10T14:36:48;5.90;62.40
15705;DHT22;7952;48.396;12.806;2022-12-10T14:39:20;5.80;62.30
15705;DHT22;7952;48.396;12.806;2022-12-10T14:41:47;5.80;62.30
15705;DHT22;7952;48.396;12.806;2022-12-10T14:44:16;5.80;62.30
15705;DHT22;7952;48.396;12.806;2022-12-10T14:46:42;5.80;62.40
15705;DHT22;7952;48.396;12.806;2022-12-10T14:49:19;5.80;62.30
15705;DHT22;7952;48.396;12.806;2022-12-10T14:51:45;5.80;62.30
15705;DHT22;7952;48.396;12.806;2022-12-10T14:54:26;5.80;62.30
15705;DHT22;7952;48.396;12.806;2022-12-10T14:56:52;5.80;62.30
15705;DHT22;7952;48.396;12.806;2022-12-10T14:59:24;5.80;62.40
15705;DHT22;7952;48.396;12.806;2022-12-10T15:01:54;5.70;62.20
15705;DHT22;7952;48.396;12.806;2022-12-10T15:04:22;5.70;62.20
15705;DHT22;7952;48.396;12.806;2022-12-10T15:06:49;5.70;62.20
15705;DHT22;7952;48.396;12.806;2022-12-10T15:09:26;5.70;62.20
15705;DHT22;7952;48.396;12.806;2022-12-10T15:11:56;5.70;62.30
15705;DHT22;7952;48.396;12.806;2022-12-10T15:14:23;5.70;62.30
15705;DHT22;7952;48.396;12.806;2022-12-10T15:16:50;5.70;62.40
15705;DHT22;7952;48.396;12.806;2022-12-10T15:19:31;5.60;62.30
15705;DHT22;7952;48.396;12.806;2022-12-10T15:22:20;5.60;62.30
15705;DHT22;7952;48.396;12.806;2022-12-10T15:24:47;5.60;62.40
15705;DHT22;7952;48.396;12.806;2022-12-10T15:27:21;5.60;62.30
15705;DHT22;7952;48.396;12.806;2022-12-10T15:29:47;5.60;62.40
15705;DHT22;7952;48.396;12.806;2022-12-10T15:32:27;5.60;62.40
15705;DHT22;7952;48.396;12.806;2022-12-10T15:34:56;5.60;62.40
15705;DHT22;7952;48.396;12.806;2022-12-10T15:37:25;5.50;62.30
15705;DHT22;7952;48.396;12.806;2022-12-10T15:39:57;5.50;62.30
15705;DHT22;7952;48.396;12.806;2022-12-10T15:45:21;5.50;62.40
15705;DHT22;7952;48.396;12.806;2022-12-10T15:47:47;5.50;62.40
15705;DHT22;7952;48.396;12.806;2022-12-10T15:50:13;5.50;62.40
15705;DHT22;7952;48.396;12.806;2022-12-10T15:52:38;5.50;62.40
15705;DHT22;7952;48.396;12.806;2022-12-10T15:55:05;5.40;62.30
15705;DHT22;7952;48.396;12.806;2022-12-10T15:57:36;5.50;62.40
15705;DHT22;7952;48.396;12.806;2022-12-10T16:00:15;5.40;62.30
15705;DHT22;7952;48.396;12.806;2022-12-10T16:05:12;5.40;62.30
15705;DHT22;7952;48.396;12.806;2022-12-10T16:07:38;5.40;62.30
15705;DHT22;7952;48.396;12.806;2022-12-10T16:10:04;5.40;62.30
15705;DHT22;7952;48.396;12.806;2022-12-10T16:12:31;5.40;62.30
15705;DHT22;7952;48.396;12.806;2022-12-10T16:14:58;5.40;62.40
15705;DHT22;7952;48.396;12.806;2022-12-10T16:17:29;5.40;62.40
15705;DHT22;7952;48.396;12.806;2022-12-10T16:20:23;5.40;62.30
15705;DHT22;7952;48.396;12.806;2022-12-10T16:22:51;5.40;62.40
15705;DHT22;7952;48.396;12.806;2022-12-10T16:25:17;5.40;62.30
15705;DHT22;7952;48.396;12.806;2022-12-10T16:27:43;5.40;62.30
15705;DHT22;7952;48.396;12.806;2022-12-10T16:30:33;5.40;63.00
15705;DHT22;7952;48.396;12.806;2022-12-10T16:33:00;5.40;62.30
15705;DHT22;7952;48.396;12.806;2022-12-10T16:35:26;5.40;62.30
15705;DHT22;7952;48.396;12.806;2022-12-10T16:37:52;5.40;62.30
15705;DHT22;7952;48.396;12.806;2022-12-10T16:40:22;5.40;62.30
15705;DHT22;7952;48.396;12.806;2022-12-10T16:42:47;5.40;62.40
15705;DHT22;7952;48.396;12.806;2022-12-10T16:45:24;5.30;62.20
15705;DHT22;7952;48.396;12.806;2022-12-10T16:47:51;5.40;62.30
15705;DHT22;7952;48.396;12.806;2022-12-10T16:50:21;5.30;62.20
15705;DHT22;7952;48.396;12.806;2022-12-10T16:52:47;5.40;62.30
15705;DHT22;7952;48.396;12.806;2022-12-10T16:55:18;5.40;62.30
15705;DHT22;7952;48.396;12.806;2022-12-10T16:57:45;5.40;62.30
15705;DHT22;7952;48.396;12.806;2022-12-10T17:00:16;5.40;62.30
15705;DHT22;7952;48.396;12.806;2022-12-10T17:02:43;5.30;62.20
15705;DHT22;7952;48.396;12.806;2022-12-10T17:05:36;5.30;62.20
15705;DHT22;7952;48.396;12.806;2022-12-10T17:08:04;5.30;62.20
15705;DHT22;7952;48.396;12.806;2022-12-10T17:10:29;5.30;62.20
15705;DHT22;7952;48.396;12.806;2022-12-10T17:13:24;5.30;62.20
15705;DHT22;7952;48.396;12.806;2022-12-10T17:15:52;5.30;62.20
15705;DHT22;7952;48.396;12.806;2022-12-10T17:18:18;5.30;62.30
15705;DHT22;7952;48.396;12.806;2022-12-10T17:20:46;5.30;62.30
15705;DHT22;7952;48.396;12.806;2022-12-10T17:23:12;5.30;62.30
15705;DHT22;7952;48.396;12.806;2022-12-10T17:25:39;5.20;62.20
15705;DHT22;7952;48.396;12.806;2022-12-10T17:28:06;5.20;62.20
15705;DHT22;7952;48.396;12.806;2022-12-10T17:30:32;5.20;62.20
15705;DHT22;7952;48.396;12.806;2022-12-10T17:32:57;5.20;62.20
15705;DHT22;7952;48.396;12.806;2022-12-10T17:35:23;5.20;62.20
15705;DHT22;7952;48.396;12.806;2022-12-10T17:37:48;5.20;62.30
15705;DHT22;7952;48.396;12.806;2022-12-10T17:40:19;5.20;62.30
15705;DHT22;7952;48.396;12.806;2022-12-10T17:42:45;5.20;62.30
15705;DHT22;7952;48.396;12.806;2022-12-10T17:45:13;5.20;62.30
15705;DHT22;7952;48.396;12.806;2022-12-10T17:47:39;5.20;62.30
15705;DHT22;7952;48.396;12.806;2022-12-10T17:52:50;5.10;62.20
15705;DHT22;7952;48.396;12.806;2022-12-10T17:55:16;5.10;62.20
15705;DHT22;7952;48.396;12.806;2022-12-10T17:57:41;5.10;62.20